Zuidhorn, Netherlands
Current Conditions -  °F | °C
As of 1:25 AM on Wednesday 26 Nov 2014 (Local Time) from EHGG Reporting Station
Few Clouds Few Clouds  
Wind Chill: 35°   Ceiling: Unl
Heat Index: 41°   Visibility: 4mi
Dew Point: 37°   Wind: 10mph
Humidity: 87%   Direction: 90°E
Pressure: 30.18"   Gusts: NA
Location:  53.25°N, 6.4°E
Report Text: EHGG 260025Z AUTO 09009KT 060V120 6000 FEW009 05/03 Q1022
Loading
Personal Weather Stations






























Interactive Weather Map New forecast layout! Learn more

10-Day Weather Forecast

Advertisements
Track Severe Weather on mobile